Carlson, Washington
Current Conditions -  °F | °C
As of 6:23 AM on Friday 31 Oct 2014 (Local Time) from KGRF Reporting Station
Moderate Rain Moderate Rain  
Wind Chill: 10°   Ceiling: 2700
Heat Index: 10°   Visibility: 5mi
Dew Point: 10°   Wind: 6mph
Humidity: 100%   Direction: 230°SW
Pressure: 29.7"   Gusts: NA
Location:  46.6944°N, 122.245°W
Report Text: KGRF 311323Z AUTO 23005KT 5SM RA BR SCT005 OVC027 10/10 A2970 RMK AO2 CIG 027V033 $
Loading
Personal Weather Stations






























Interactive Weather Map
Tropical Storm Tracking
New forecast layout! Learn more

10-Day Weather Forecast

Advertisements
Track Severe Weather on mobile